Time;durP1;ratioP1;P1;durP2;ratioP2;P2;SDS_P1;SDS_P2;PMS_P1;PMS_P2;Temp;Humidity;BMP_temperature;BMP_pressure;BME280_temperature;BME280_humidity;BME280_pressure;Samples;Min_cycle;Max_cycle;Signal;HPM_P1;HPM_P2
2023/10/20 00:00:39;;;;;;;16.13;11.13;;;8.60;99.90;;;;;;5013798;28;20480;-81
2023/10/20 00:03:05;;;;;;;18.13;10.80;;;7.60;99.90;;;;;;5034943;28;20043;-81
2023/10/20 00:05:30;;;;;;;19.05;12.30;;;8.20;99.90;;;;;;5016703;28;20124;-79
2023/10/20 00:07:57;;;;;;;18.45;12.27;;;7.40;99.90;;;;;;5033667;28;20049;-78
2023/10/20 00:10:28;;;;;;;16.90;11.70;;;7.50;99.90;;;;;;5022582;28;20072;-78
2023/10/20 00:12:54;;;;;;;19.98;12.88;;;7.50;99.90;;;;;;5006698;28;20111;-81
2023/10/20 00:15:20;;;;;;;21.85;14.00;;;6.20;99.90;;;;;;5007359;28;20560;-79
2023/10/20 00:17:49;;;;;;;20.55;11.73;;;9.00;99.90;;;;;;5033322;28;20144;-80
2023/10/20 00:20:16;;;;;;;19.05;13.32;;;7.40;99.90;;;;;;5019556;28;20497;-83
2023/10/20 00:22:41;;;;;;;21.65;14.40;;;9.50;99.90;;;;;;5011493;28;20066;-77
2023/10/20 00:25:11;;;;;;;20.23;12.77;;;7.40;99.90;;;;;;5036304;28;20104;-80
2023/10/20 00:27:42;;;;;;;23.67;13.40;;;7.50;99.90;;;;;;5042313;28;20049;-79
2023/10/20 00:30:09;;;;;;;27.88;14.90;;;7.40;99.90;;;;;;5031490;28;20057;-80
2023/10/20 00:32:35;;;;;;;21.52;13.98;;;7.40;99.90;;;;;;5023980;28;20037;-80
2023/10/20 00:35:05;;;;;;;24.00;13.40;;;7.40;99.90;;;;;;5036534;28;20040;-78
2023/10/20 00:37:34;;;;;;;23.30;13.32;;;7.80;99.90;;;;;;5040182;28;20052;-78
2023/10/20 00:40:00;;;;;;;25.35;14.02;;;8.30;99.90;;;;;;5023520;28;20104;-78
2023/10/20 00:42:27;;;;;;;26.23;14.50;;;9.50;99.90;;;;;;5023057;28;20512;-79
2023/10/20 00:44:53;;;;;;;24.45;14.55;;;7.50;99.90;;;;;;5038757;28;20412;-79
2023/10/20 00:47:20;;;;;;;23.58;14.32;;;7.50;99.90;;;;;;5044248;28;20036;-78
2023/10/20 00:49:46;;;;;;;24.50;14.30;;;9.10;99.90;;;;;;5041997;28;20036;-78
2023/10/20 00:52:14;;;;;;;25.70;15.82;;;9.00;99.90;;;;;;5027639;28;20038;-78
2023/10/20 00:54:44;;;;;;;27.67;15.35;;;7.50;99.90;;;;;;5049371;28;20150;-79
2023/10/20 00:57:16;;;;;;;27.90;15.57;;;7.50;99.90;;;;;;5045134;28;20059;-79
2023/10/20 00:59:44;;;;;;;;;;;9.70;99.90;;;;;;5010332;28;20185;-81
2023/10/20 01:02:13;;;;;;;29.02;15.80;;;7.40;99.90;;;;;;5032803;28;19927;-79
2023/10/20 01:04:39;;;;;;;27.63;14.85;;;7.50;99.90;;;;;;5054053;28;20043;-79
2023/10/20 01:07:05;;;;;;;25.38;15.00;;;9.60;99.90;;;;;;5041222;28;20040;-79
2023/10/20 01:09:31;;;;;;;32.08;16.33;;;7.40;99.90;;;;;;5041223;28;20063;-79
2023/10/20 01:11:57;;;;;;;27.63;15.77;;;7.40;99.90;;;;;;5041630;28;20040;-78
2023/10/20 01:14:23;;;;;;;30.30;17.77;;;7.40;99.90;;;;;;5037997;28;20032;-78
2023/10/20 01:16:48;;;;;;;31.77;17.05;;;9.30;99.90;;;;;;5038697;28;20063;-78
2023/10/20 01:19:16;;;;;;;31.42;17.13;;;8.50;99.90;;;;;;5018009;28;20404;-79
2023/10/20 01:21:43;;;;;;;32.20;17.88;;;9.50;99.90;;;;;;5047535;28;20044;-79
2023/10/20 01:24:10;;;;;;;32.53;16.40;;;7.40;99.90;;;;;;5048856;28;20027;-79
2023/10/20 01:26:35;;;;;;;40.10;18.35;;;7.50;99.90;;;;;;5049699;28;20059;-80
2023/10/20 01:29:05;;;;;;;37.45;17.35;;;9.00;99.90;;;;;;5057054;28;20040;-80
2023/10/20 01:31:31;;;;;;;34.47;17.88;;;7.10;99.90;;;;;;5062234;28;20063;-79
2023/10/20 01:33:57;;;;;;;31.73;17.10;;;8.90;99.90;;;;;;5044699;28;20040;-79
2023/10/20 01:36:23;;;;;;;40.15;18.70;;;7.50;99.90;;;;;;5049614;28;20047;-79
2023/10/20 01:38:49;;;;;;;33.03;18.33;;;7.40;99.90;;;;;;5038256;28;20056;-78
2023/10/20 01:41:15;;;;;;;35.63;18.73;;;9.30;99.90;;;;;;5024414;28;20497;-78
2023/10/20 01:43:41;;;;;;;30.20;17.10;;;9.30;99.90;;;;;;5040742;28;20045;-79
2023/10/20 01:46:06;;;;;;;39.88;20.40;;;8.50;99.90;;;;;;5033164;28;20037;-79
2023/10/20 01:48:33;;;;;;;37.17;19.55;;;7.40;99.90;;;;;;5039688;28;20493;-79
2023/10/20 01:51:01;;;;;;;34.67;17.35;;;9.60;99.90;;;;;;5005095;28;20056;-78
2023/10/20 01:53:27;;;;;;;36.20;18.65;;;8.30;99.90;;;;;;5044033;28;20047;-80
2023/10/20 01:55:54;;;;;;;36.05;20.58;;;7.60;99.90;;;;;;5023635;28;20307;-79
2023/10/20 01:58:21;;;;;;;40.55;19.20;;;7.40;99.90;;;;;;5025910;28;20037;-79
2023/10/20 02:00:50;;;;;;;36.72;18.45;;;7.50;99.90;;;;;;4999066;28;20052;-78
2023/10/20 02:03:17;;;;;;;31.17;19.30;;;9.30;99.90;;;;;;5035093;28;20033;-80
2023/10/20 02:05:43;;;;;;;41.70;20.60;;;9.00;99.90;;;;;;5034688;28;20045;-79
2023/10/20 02:08:09;;;;;;;36.00;19.52;;;8.60;99.90;;;;;;5039812;28;20113;-79
2023/10/20 02:10:35;;;;;;;35.97;18.92;;;7.50;99.90;;;;;;5009127;28;20045;-79
2023/10/20 02:13:02;;;;;;;41.13;20.38;;;9.00;99.90;;;;;;5038757;28;20128;-79
2023/10/20 02:15:28;;;;;;;36.45;18.77;;;7.40;99.90;;;;;;5011208;28;20060;-78
2023/10/20 02:17:54;;;;;;;29.85;17.85;;;7.40;99.90;;;;;;5038067;28;20042;-79
2023/10/20 02:20:23;;;;;;;33.60;18.08;;;8.90;99.90;;;;;;5019570;28;20068;-80
2023/10/20 02:22:53;;;;;;;36.33;19.45;;;7.40;99.90;;;;;;5019206;28;20048;-80
2023/10/20 02:25:20;;;;;;;44.60;21.15;;;8.80;99.90;;;;;;5034503;28;20041;-79
2023/10/20 02:27:47;;;;;;;35.30;17.40;;;8.70;99.90;;;;;;5010846;28;20443;-78
2023/10/20 02:30:14;;;;;;;33.45;18.23;;;8.90;99.90;;;;;;5035640;28;20038;-80
2023/10/20 02:32:41;;;;;;;36.63;18.38;;;9.40;99.90;;;;;;5014019;28;20084;-79
2023/10/20 02:35:12;;;;;;;44.90;19.35;;;9.20;99.90;;;;;;5022644;28;20046;-82
2023/10/20 02:37:38;;;;;;;33.50;17.63;;;7.40;99.90;;;;;;5032682;28;20052;-80
2023/10/20 02:40:04;;;;;;;29.42;17.77;;;9.20;99.90;;;;;;5047729;28;20480;-80
2023/10/20 02:42:33;;;;;;;34.40;16.98;;;7.80;99.90;;;;;;5041064;28;20043;-79
2023/10/20 02:45:09;;;;;;;37.25;18.67;;;9.60;99.90;;;;;;5040640;28;20456;-79
2023/10/20 02:47:37;;;;;;;38.47;18.67;;;7.40;99.90;;;;;;5052369;28;20124;-79
2023/10/20 02:50:04;;;;;;;28.33;16.42;;;8.00;99.90;;;;;;5041738;28;20496;-79
2023/10/20 02:52:29;;;;;;;36.40;17.88;;;7.50;99.90;;;;;;5023304;28;20047;-78
2023/10/20 02:54:56;;;;;;;32.67;17.27;;;8.50;99.90;;;;;;5045481;28;20044;-80
2023/10/20 02:57:25;;;;;;;31.77;18.27;;;7.50;99.90;;;;;;5040405;28;20395;-79
2023/10/20 03:00:18;;;;;;;31.08;16.25;;;7.50;99.90;;;;;;5026488;28;20053;-80
2023/10/20 03:02:48;;;;;;;34.13;17.50;;;7.50;99.90;;;;;;5055670;28;20045;-80
2023/10/20 03:05:16;;;;;;;32.90;17.58;;;7.40;99.90;;;;;;5013903;28;20039;-79
2023/10/20 03:07:43;;;;;;;40.97;20.15;;;;;;;;;;5043497;28;20468;-79
2023/10/20 03:10:10;;;;;;;27.48;16.27;;;7.50;99.90;;;;;;5043288;28;20047;-79
2023/10/20 03:12:36;;;;;;;36.17;18.52;;;7.50;99.90;;;;;;5036279;28;20071;-78
2023/10/20 03:15:04;;;;;;;30.90;16.05;;;9.10;99.90;;;;;;5001726;28;20064;-79
2023/10/20 03:17:31;;;;;;;29.55;17.08;;;7.50;99.90;;;;;;5044538;28;20526;-79
2023/10/20 03:19:57;;;;;;;34.90;17.35;;;7.50;99.90;;;;;;5014987;28;20041;-79
2023/10/20 03:22:23;;;;;;;28.67;17.10;;;7.50;99.90;;;;;;5060260;28;20438;-80
2023/10/20 03:24:56;;;;;;;34.95;18.83;;;7.50;99.90;;;;;;5008026;28;20135;-80
2023/10/20 03:27:23;;;;;;;29.67;17.67;;;7.50;99.90;;;;;;5037068;28;20063;-79
2023/10/20 03:29:57;;;;;;;26.25;16.33;;;7.50;99.90;;;;;;5021924;28;20447;-80
2023/10/20 03:32:26;;;;;;;30.88;17.92;;;7.50;99.90;;;;;;5047451;28;20106;-80
2023/10/20 03:34:52;;;;;;;26.45;15.68;;;9.20;99.90;;;;;;5005528;28;20049;-80
2023/10/20 03:37:19;;;;;;;27.80;16.02;;;7.40;99.90;;;;;;5020171;28;20097;-79
2023/10/20 03:39:46;;;;;;;31.58;17.27;;;7.50;99.90;;;;;;5048915;28;20063;-79
2023/10/20 03:42:13;;;;;;;25.48;16.35;;;7.40;99.90;;;;;;5022862;28;20110;-80
2023/10/20 03:44:46;;;;;;;25.38;16.40;;;7.70;99.90;;;;;;5026510;28;20087;-79
2023/10/20 03:47:13;;;;;;;24.52;15.88;;;7.40;99.90;;;;;;5007511;28;20044;-80
2023/10/20 03:49:45;;;;;;;28.23;16.00;;;7.50;99.90;;;;;;5034982;28;20040;-79
2023/10/20 03:52:13;;;;;;;25.58;14.98;;;6.10;99.90;;;;;;5017735;28;20039;-79
2023/10/20 03:55:07;;;;;;;25.17;14.27;;;9.30;99.90;;;;;;5050610;28;20079;-78
2023/10/20 03:57:33;;;;;;;21.23;14.57;;;7.40;99.90;;;;;;5016061;28;20066;-80
2023/10/20 04:00:17;;;;;;;27.30;15.55;;;9.30;99.90;;;;;;5041586;28;20101;-79
2023/10/20 04:02:51;;;;;;;23.40;14.18;;;7.30;99.90;;;;;;5052346;28;20052;-79
2023/10/20 04:05:20;;;;;;;25.07;15.13;;;9.00;99.90;;;;;;5037098;28;20041;-80
2023/10/20 04:08:06;;;;;;;24.08;15.55;;;7.40;99.90;;;;;;5040910;28;20554;-79
2023/10/20 04:10:33;;;;;;;24.50;15.10;;;7.30;99.90;;;;;;5024978;28;20069;-78
2023/10/20 04:13:01;;;;;;;23.98;14.45;;;7.40;99.90;;;;;;5034804;28;20052;-79
2023/10/20 04:15:35;;;;;;;22.52;14.48;;;7.40;99.90;;;;;;5036498;28;21539;-79
2023/10/20 04:18:05;;;;;;;23.92;14.23;;;7.30;99.90;;;;;;5025773;28;20053;-80
2023/10/20 04:20:42;;;;;;;24.08;14.27;;;7.30;99.90;;;;;;5003237;28;20128;-79
2023/10/20 04:23:10;;;;;;;20.17;13.65;;;7.30;99.90;;;;;;5038162;28;20040;-80
2023/10/20 04:25:49;;;;;;;22.50;14.73;;;7.30;99.90;;;;;;5050846;28;20045;-80
2023/10/20 04:28:16;;;;;;;23.38;13.68;;;7.30;99.90;;;;;;5017180;28;20083;-79
2023/10/20 05:00:36;;;;;;;14.40;9.77;;;7.30;99.90;;;;;;5033490;28;20055;-82
2023/10/20 05:08:17;;;;;;;12.50;8.77;;;9.00;99.90;;;;;;5037448;28;20045;-79
2023/10/20 05:10:51;;;;;;;14.75;10.50;;;8.20;99.90;;;;;;5036428;28;20485;-80
2023/10/20 05:13:17;;;;;;;12.60;8.32;;;7.20;99.90;;;;;;5030395;28;20094;-79
2023/10/20 05:15:43;;;;;;;14.35;9.00;;;7.30;99.90;;;;;;5036069;28;20430;-79
2023/10/20 05:18:14;;;;;;;13.07;8.25;;;8.40;99.90;;;;;;5029541;28;20065;-79
2023/10/20 05:20:42;;;;;;;11.05;8.13;;;8.50;99.90;;;;;;5056914;28;20037;-79
2023/10/20 05:23:08;;;;;;;11.10;7.95;;;7.90;99.90;;;;;;5016378;28;20037;-79
2023/10/20 05:25:45;;;;;;;15.25;7.88;;;8.50;99.90;;;;;;5028446;28;20413;-79
2023/10/20 05:28:11;;;;;;;11.27;7.68;;;;;;;;;;5051582;28;20107;-81
2023/10/20 05:30:44;;;;;;;12.10;7.63;;;7.20;99.90;;;;;;5020686;28;20045;-81
2023/10/20 05:33:15;;;;;;;10.17;7.27;;;7.30;99.90;;;;;;5021618;28;20136;-81
2023/10/20 05:35:40;;;;;;;10.63;6.60;;;7.50;99.90;;;;;;5013340;28;20132;-80
2023/10/20 05:38:06;;;;;;;13.60;7.45;;;8.70;99.90;;;;;;5016081;28;20165;-81
2023/10/20 05:40:36;;;;;;;13.02;7.47;;;9.10;99.90;;;;;;5005515;28;20379;-80
2023/10/20 05:43:05;;;;;;;13.85;7.32;;;7.50;99.90;;;;;;5038633;28;20087;-79
2023/10/20 05:45:37;;;;;;;9.70;6.40;;;7.20;99.90;;;;;;5034733;28;20045;-78
2023/10/20 05:48:05;;;;;;;8.63;6.07;;;7.30;99.90;;;;;;5035834;28;20041;-80
2023/10/20 05:50:38;;;;;;;8.90;5.82;;;7.30;99.90;;;;;;5015906;28;20119;-78
2023/10/20 05:53:04;;;;;;;8.55;6.10;;;7.30;99.90;;;;;;5026729;28;20037;-79
2023/10/20 05:55:33;;;;;;;13.18;6.70;;;8.30;99.90;;;;;;5032203;28;20033;-78
2023/10/20 05:58:09;;;;;;;9.20;6.03;;;9.30;99.90;;;;;;5016753;28;20040;-80
2023/10/20 06:00:39;;;;;;;10.45;6.18;;;9.00;99.90;;;;;;5017537;28;20041;-79
2023/10/20 06:03:06;;;;;;;12.65;6.35;;;7.30;99.90;;;;;;5040553;28;20776;-80
2023/10/20 06:05:33;;;;;;;9.43;5.40;;;8.40;99.90;;;;;;5024580;28;20044;-81
2023/10/20 06:08:00;;;;;;;9.38;5.68;;;7.30;99.90;;;;;;5019177;28;20047;-80
2023/10/20 06:10:26;;;;;;;6.38;5.20;;;9.10;99.90;;;;;;5022207;28;20055;-80
2023/10/20 06:12:54;;;;;;;7.75;5.10;;;8.70;99.90;;;;;;5019811;28;20123;-80
2023/10/20 06:15:20;;;;;;;9.05;5.68;;;7.90;99.90;;;;;;5004789;28;20056;-79
2023/10/20 06:17:47;;;;;;;9.88;4.85;;;8.60;99.90;;;;;;5027652;28;20065;-79
2023/10/20 06:20:14;;;;;;;6.57;5.03;;;7.30;99.90;;;;;;5028212;28;20059;-79
2023/10/20 06:22:42;;;;;;;5.80;4.25;;;7.30;99.90;;;;;;5030186;28;20040;-79
2023/10/20 06:25:14;;;;;;;8.40;5.18;;;9.20;99.90;;;;;;5024425;28;20492;-80
2023/10/20 06:27:44;;;;;;;9.88;5.05;;;7.30;99.90;;;;;;5017938;28;20068;-79
2023/10/20 06:30:22;;;;;;;9.90;5.10;;;7.30;99.90;;;;;;5030030;28;20412;-83
2023/10/20 06:35:51;;;;;;;9.32;5.22;;;7.30;99.90;;;;;;5053537;28;20044;-80
2023/10/20 06:38:46;;;;;;;10.18;4.72;;;7.40;99.90;;;;;;4344749;28;10000692;-80
2023/10/20 06:41:30;;;;;;;6.03;3.90;;;7.40;99.90;;;;;;5038117;28;20474;-80
2023/10/20 06:43:57;;;;;;;5.22;4.00;;;7.40;99.90;;;;;;5023667;28;20052;-82
2023/10/20 06:46:22;;;;;;;5.50;3.78;;;7.10;99.90;;;;;;5044403;28;20056;-79
2023/10/20 06:48:48;;;;;;;5.30;3.88;;;9.00;99.90;;;;;;5037330;28;20052;-79
2023/10/20 06:51:14;;;;;;;5.70;4.13;;;7.30;99.90;;;;;;5037588;28;20048;-81
2023/10/20 06:53:40;;;;;;;7.00;3.65;;;9.30;99.90;;;;;;5058703;28;20059;-81
2023/10/20 06:56:09;;;;;;;6.70;3.28;;;7.40;99.90;;;;;;5029400;28;20050;-81
2023/10/20 06:58:34;;;;;;;8.10;3.53;;;9.00;99.90;;;;;;5041862;28;20438;-80
2023/10/20 07:01:05;;;;;;;3.95;3.08;;;9.60;99.90;;;;;;5035154;28;20048;-79
2023/10/20 07:03:32;;;;;;;3.88;3.15;;;7.40;99.90;;;;;;5041452;28;20144;-81
2023/10/20 07:05:59;;;;;;;6.43;2.90;;;9.20;99.90;;;;;;5041395;28;20131;-80
2023/10/20 07:08:25;;;;;;;5.80;2.50;;;7.30;99.90;;;;;;5031998;28;20090;-80
2023/10/20 07:10:51;;;;;;;4.47;2.58;;;7.50;99.90;;;;;;5052957;28;20060;-80
2023/10/20 07:13:17;;;;;;;4.50;2.65;;;9.10;99.90;;;;;;5025413;28;20040;-80
2023/10/20 07:15:44;;;;;;;4.30;2.28;;;8.90;99.90;;;;;;5028391;28;20069;-80
2023/10/20 07:18:12;;;;;;;4.82;2.65;;;9.30;99.90;;;;;;5036642;28;20055;-80
2023/10/20 07:20:41;;;;;;;2.72;2.13;;;8.40;99.90;;;;;;5035713;28;20480;-80
2023/10/20 07:23:07;;;;;;;3.67;1.98;;;7.40;99.90;;;;;;5040405;28;20045;-80
2023/10/20 07:25:33;;;;;;;3.53;2.20;;;8.90;99.90;;;;;;5042020;28;20051;-81
2023/10/20 07:27:59;;;;;;;3.20;2.05;;;7.20;99.90;;;;;;5039206;28;20499;-81
2023/10/20 07:30:28;;;;;;;4.80;2.47;;;9.50;99.90;;;;;;5027544;28;20047;-80
2023/10/20 07:32:54;;;;;;;4.60;1.95;;;7.30;99.90;;;;;;5058009;28;20049;-81
2023/10/20 07:35:21;;;;;;;2.15;1.63;;;7.30;99.90;;;;;;5039155;28;20045;-81
2023/10/20 07:37:46;;;;;;;3.00;1.67;;;8.90;99.90;;;;;;5058134;28;20119;-80
2023/10/20 07:40:13;;;;;;;4.70;2.17;;;8.10;99.90;;;;;;5047316;28;20043;-81
2023/10/20 07:42:39;;;;;;;3.95;2.00;;;7.20;99.90;;;;;;5042809;28;20040;-82
2023/10/20 07:45:07;;;;;;;1.80;1.40;;;7.20;99.90;;;;;;5035894;28;20044;-80
2023/10/20 07:47:33;;;;;;;2.88;1.73;;;7.20;99.90;;;;;;5046443;28;20043;-80
2023/10/20 07:49:59;;;;;;;4.10;2.00;;;7.20;99.90;;;;;;5045480;28;20554;-81
2023/10/20 07:52:26;;;;;;;3.75;1.80;;;8.50;99.90;;;;;;5015513;28;20036;-81
2023/10/20 07:54:52;;;;;;;1.65;1.40;;;7.20;99.90;;;;;;5045015;28;20051;-80
2023/10/20 07:57:19;;;;;;;3.33;2.13;;;7.60;99.90;;;;;;5043282;28;20040;-81
2023/10/20 07:59:47;;;;;;;3.90;2.38;;;9.30;99.90;;;;;;5045830;28;20353;-81
2023/10/20 08:02:13;;;;;;;4.47;2.42;;;7.10;99.90;;;;;;5044235;28;20082;-81
2023/10/20 08:04:41;;;;;;;2.47;2.03;;;7.00;99.90;;;;;;5042335;28;20080;-81
2023/10/20 08:07:09;;;;;;;3.50;2.33;;;8.60;99.90;;;;;;5053516;28;20512;-83
2023/10/20 08:09:36;;;;;;;3.42;1.92;;;7.00;99.90;;;;;;5040749;28;20048;-83
2023/10/20 08:12:02;;;;;;;4.70;2.13;;;9.50;99.90;;;;;;5054772;28;20041;-82
2023/10/20 08:14:28;;;;;;;2.55;1.75;;;7.10;99.90;;;;;;5035106;28;20040;-84
2023/10/20 08:16:54;;;;;;;3.15;2.30;;;7.10;99.90;;;;;;5042688;28;20105;-83
2023/10/20 08:19:20;;;;;;;4.22;2.03;;;7.10;99.90;;;;;;5041965;28;20048;-83
2023/10/20 08:21:46;;;;;;;3.90;1.80;;;7.10;99.90;;;;;;5052642;28;20427;-81
2023/10/20 08:24:11;;;;;;;2.40;1.42;;;7.00;99.90;;;;;;5040063;28;20033;-81
2023/10/20 08:26:39;;;;;;;3.22;1.60;;;7.00;99.90;;;;;;5039429;28;20613;-82
2023/10/20 08:29:11;;;;;;;3.58;2.08;;;7.00;99.90;;;;;;5051179;28;20078;-82
2023/10/20 08:31:36;;;;;;;2.72;1.83;;;7.00;99.90;;;;;;5045323;28;20048;-82
2023/10/20 08:34:03;;;;;;;2.30;1.70;;;8.30;99.90;;;;;;5038178;28;20045;-82
2023/10/20 08:36:28;;;;;;;3.40;2.25;;;7.10;99.90;;;;;;5062086;28;20040;-82
2023/10/20 08:38:54;;;;;;;2.92;2.00;;;8.50;99.90;;;;;;5036102;28;20064;-82
2023/10/20 08:41:22;;;;;;;2.72;1.70;;;8.30;99.90;;;;;;5058478;28;20055;-82
2023/10/20 08:43:49;;;;;;;3.00;1.98;;;7.00;99.90;;;;;;5037036;28;20044;-81
2023/10/20 08:46:16;;;;;;;3.60;1.98;;;7.00;99.90;;;;;;5035335;28;20073;-81
2023/10/20 08:48:47;;;;;;;2.40;1.65;;;7.00;99.90;;;;;;5061587;28;20036;-83
2023/10/20 08:51:15;;;;;;;2.97;1.75;;;7.00;99.90;;;;;;5056548;28;20072;-84
2023/10/20 08:53:45;;;;;;;2.17;1.77;;;7.00;99.90;;;;;;5036436;28;20151;-81
2023/10/20 08:56:12;;;;;;;3.53;2.10;;;7.00;99.90;;;;;;5040619;28;20101;-82
2023/10/20 08:58:45;;;;;;;3.67;1.80;;;8.10;99.90;;;;;;5061885;28;20044;-84
2023/10/20 09:01:11;;;;;;;3.10;1.50;;;7.00;99.90;;;;;;5038111;28;20076;-84
2023/10/20 09:03:44;;;;;;;2.17;1.45;;;7.00;99.90;;;;;;5038864;28;20086;-82
2023/10/20 09:06:14;;;;;;;3.28;2.25;;;6.90;99.90;;;;;;5044134;28;20048;-83
2023/10/20 09:08:41;;;;;;;3.55;2.35;;;6.90;99.90;;;;;;5041521;28;20127;-84
2023/10/20 09:11:11;;;;;;;2.65;2.45;;;6.90;99.90;;;;;;5047866;28;20032;-83
2023/10/20 09:13:40;;;;;;;3.88;2.00;;;6.90;99.90;;;;;;5022427;28;20044;-83
2023/10/20 09:16:10;;;;;;;31.48;16.33;;;6.90;99.90;;;;;;5017049;28;20047;-84
2023/10/20 09:18:45;;;;;;;5.63;4.10;;;6.90;99.90;;;;;;5035621;28;20377;-82
2023/10/20 09:21:15;;;;;;;5.32;2.50;;;6.90;99.90;;;;;;5043745;28;20045;-85
2023/10/20 09:24:03;;;;;;;2.15;1.90;;;6.70;99.90;;;;;;5043151;28;20064;-86
2023/10/20 09:26:31;;;;;;;1.95;1.42;;;6.90;99.90;;;;;;5030462;28;20041;-83
2023/10/20 09:29:05;;;;;;;1.92;1.25;;;6.80;99.90;;;;;;5055894;28;20044;-82
2023/10/20 09:31:31;;;;;;;1.92;1.20;;;6.90;99.90;;;;;;5033456;28;20480;-83
2023/10/20 09:33:57;;;;;;;2.03;1.05;;;8.70;99.90;;;;;;5039665;28;20135;-84
2023/10/20 09:36:24;;;;;;;4.75;1.70;;;6.80;99.90;;;;;;5047681;28;20044;-84
2023/10/20 09:38:55;;;;;;;3.30;1.33;;;6.80;99.90;;;;;;5023918;28;20040;-82
2023/10/20 09:41:23;;;;;;;1.67;1.50;;;6.80;99.90;;;;;;5026690;28;20041;-83
2023/10/20 09:43:52;;;;;;;8.80;5.13;;;6.80;99.90;;;;;;5047720;28;20039;-85
2023/10/20 09:46:53;;;;;;;4.35;3.00;;;6.90;99.90;;;;;;5050098;28;20059;-85
2023/10/20 09:49:26;;;;;;;2.65;1.83;;;6.80;99.90;;;;;;5038052;28;20044;-85
2023/10/20 09:51:57;;;;;;;2.63;1.13;;;6.90;99.90;;;;;;5034555;28;20376;-83
2023/10/20 09:54:28;;;;;;;2.20;1.13;;;8.70;99.90;;;;;;5028385;28;20041;-83
2023/10/20 09:56:54;;;;;;;1.25;0.82;;;6.80;99.90;;;;;;5028707;28;20557;-81
2023/10/20 09:59:23;;;;;;;1.08;0.60;;;9.00;99.90;;;;;;5033652;28;20037;-82
2023/10/20 10:01:54;;;;;;;1.08;0.50;;;6.80;99.90;;;;;;5030189;28;20075;-85
2023/10/20 10:04:28;;;;;;;1.17;0.90;;;8.50;99.90;;;;;;5039684;28;20165;-82
2023/10/20 10:06:55;;;;;;;1.58;0.90;;;6.70;99.90;;;;;;5026026;28;20086;-82
2023/10/20 10:09:21;;;;;;;0.80;0.68;;;6.70;99.90;;;;;;5024690;28;20049;-83
2023/10/20 10:11:53;;;;;;;1.05;0.90;;;6.60;99.90;;;;;;5045548;28;20127;-82
2023/10/20 10:14:21;;;;;;;0.85;0.65;;;6.70;99.90;;;;;;5040307;28;20044;-83
2023/10/20 10:16:55;;;;;;;1.40;1.05;;;8.40;99.90;;;;;;5052280;28;20045;-83
2023/10/20 10:19:27;;;;;;;1.23;0.75;;;6.70;99.90;;;;;;5046254;28;20484;-82
2023/10/20 10:21:59;;;;;;;2.50;0.75;;;6.60;99.90;;;;;;5053006;28;20052;-81
2023/10/20 10:24:31;;;;;;;2.58;1.05;;;8.60;99.90;;;;;;5057880;28;20087;-83
2023/10/20 10:27:06;;;;;;;0.68;0.40;;;5.90;99.90;;;;;;5028413;28;20036;-81
2023/10/20 10:29:54;;;;;;;2.40;0.57;;;6.70;99.90;;;;;;5024786;28;20507;-83
2023/10/20 10:32:27;;;;;;;1.27;0.40;;;5.90;99.90;;;;;;5035168;28;20664;-82
2023/10/20 10:34:54;;;;;;;2.95;0.40;;;7.50;99.90;;;;;;5022075;28;20052;-83
2023/10/20 10:37:38;;;;;;;1.45;0.85;;;6.00;99.90;;;;;;5042558;28;20064;-81
2023/10/20 10:40:15;;;;;;;0.93;0.70;;;6.60;99.90;;;;;;5040584;28;20055;-81
2023/10/20 10:42:49;;;;;;;0.75;0.75;;;6.60;99.90;;;;;;5028259;28;20040;-80
2023/10/20 10:45:23;;;;;;;2.25;1.90;;;6.60;99.90;;;;;;5029053;28;20569;-79
2023/10/20 10:48:08;;;;;;;2.17;1.52;;;6.40;99.90;;;;;;5024333;28;20044;-80
2023/10/20 10:50:44;;;;;;;3.08;1.48;;;6.60;99.90;;;;;;5048483;28;20045;-80
2023/10/20 10:53:10;;;;;;;0.95;0.93;;;7.30;99.90;;;;;;5060625;28;20052;-80
2023/10/20 10:55:36;;;;;;;1.90;1.73;;;6.40;99.90;;;;;;5039530;28;20045;-84
2023/10/20 10:58:07;;;;;;;0.75;0.60;;;6.90;99.90;;;;;;5051923;28;20171;-81
2023/10/20 11:00:37;;;;;;;1.48;0.60;;;8.50;99.90;;;;;;5042259;28;20055;-84
2023/10/20 11:03:04;;;;;;;1.30;0.60;;;8.20;99.90;;;;;;5048205;28;20036;-82
2023/10/20 11:05:32;;;;;;;2.65;1.30;;;6.50;99.90;;;;;;5060091;28;20072;-84
2023/10/20 11:08:06;;;;;;;1.08;0.35;;;8.60;99.90;;;;;;5042818;28;20153;-85
2023/10/20 11:10:42;;;;;;;4.75;3.45;;;6.50;99.90;;;;;;5042744;28;20052;-85
2023/10/20 11:13:20;;;;;;;6.25;4.88;;;6.50;99.90;;;;;;5059454;28;20078;-83
2023/10/20 11:15:46;;;;;;;6.70;4.63;;;8.10;99.90;;;;;;5046201;28;20090;-84
2023/10/20 11:18:16;;;;;;;2.10;1.90;;;6.50;99.90;;;;;;5055052;28;20048;-84
2023/10/20 11:20:43;;;;;;;0.80;0.73;;;6.50;99.90;;;;;;5046179;28;20045;-85
2023/10/20 11:23:12;;;;;;;0.95;0.90;;;6.80;99.90;;;;;;5041970;28;20246;-84
2023/10/20 11:25:40;;;;;;;1.15;0.80;;;6.50;99.90;;;;;;5042181;28;20056;-84
2023/10/20 11:28:07;;;;;;;1.42;1.33;;;6.50;99.90;;;;;;5063112;28;20621;-85
2023/10/20 11:30:37;;;;;;;1.65;0.20;;;8.20;99.90;;;;;;5033258;28;20051;-85
2023/10/20 11:33:03;;;;;;;1.05;0.90;;;6.40;99.90;;;;;;5052899;28;20060;-85
2023/10/20 11:35:29;;;;;;;1.02;0.35;;;6.50;99.90;;;;;;5060047;28;20044;-84
2023/10/20 11:37:56;;;;;;;0.63;0.20;;;6.70;99.90;;;;;;5040006;28;20063;-84
2023/10/20 11:40:22;;;;;;;0.40;0.20;;;8.30;99.90;;;;;;5034924;28;20532;-83
2023/10/20 11:42:48;;;;;;;4.13;0.50;;;7.40;99.90;;;;;;5042749;28;20041;-83
2023/10/20 11:45:15;;;;;;;1.00;0.30;;;7.60;99.90;;;;;;5050806;28;20048;-83
2023/10/20 11:47:41;;;;;;;0.70;0.30;;;6.40;99.90;;;;;;5059147;28;20040;-83
2023/10/20 11:50:18;;;;;;;0.20;0.20;;;6.40;99.90;;;;;;5054612;28;20190;-85
2023/10/20 11:52:45;;;;;;;0.20;0.10;;;6.50;99.90;;;;;;5037905;28;20210;-84
2023/10/20 11:55:11;;;;;;;1.08;0.10;;;6.40;99.90;;;;;;5049689;28;20099;-86
2023/10/20 11:57:38;;;;;;;1.65;0.20;;;6.40;99.90;;;;;;5042146;28;20473;-85
2023/10/20 12:00:07;;;;;;;0.20;0.10;;;6.40;99.90;;;;;;5034026;28;20132;-82
2023/10/20 12:02:38;;;;;;;0.32;0.13;;;6.40;99.90;;;;;;5045646;28;20401;-85
2023/10/20 12:05:05;;;;;;;0.50;0.17;;;6.40;99.90;;;;;;5038071;28;20193;-81
2023/10/20 12:07:31;;;;;;;0.10;0.10;;;6.40;99.90;;;;;;5058476;28;20131;-83
2023/10/20 12:09:58;;;;;;;0.30;0.10;;;6.40;99.90;;;;;;5038837;28;20135;-83
2023/10/20 12:12:24;;;;;;;1.05;0.40;;;6.40;99.90;;;;;;5037243;28;20088;-83
2023/10/20 12:14:50;;;;;;;12.93;8.18;;;6.30;99.90;;;;;;5058466;28;20080;-84
2023/10/20 12:17:15;;;;;;;1.65;1.17;;;6.40;99.90;;;;;;5040929;28;20040;-82
2023/10/20 12:19:41;;;;;;;0.95;0.85;;;6.30;99.90;;;;;;5038263;28;20037;-82
2023/10/20 12:22:09;;;;;;;1.45;0.90;;;4.60;99.90;;;;;;5061438;28;20040;-81
2023/10/20 12:24:35;;;;;;;2.72;0.90;;;8.70;99.90;;;;;;5048985;28;20131;-85
2023/10/20 12:27:01;;;;;;;0.88;0.82;;;8.00;99.90;;;;;;5040014;28;20329;-86
2023/10/20 12:29:28;;;;;;;1.05;0.98;;;6.40;99.90;;;;;;5050076;28;20087;-85
2023/10/20 12:31:54;;;;;;;7.63;5.18;;;6.40;99.90;;;;;;5041435;28;20395;-84
2023/10/20 12:34:20;;;;;;;3.88;3.30;;;6.40;99.90;;;;;;5035447;28;20101;-84
2023/10/20 12:36:48;;;;;;;6.30;3.60;;;6.80;99.90;;;;;;5038783;28;20052;-85
2023/10/20 12:39:17;;;;;;;9.48;5.22;;;6.40;99.90;;;;;;5033248;28;20103;-85
2023/10/20 12:41:49;;;;;;;2.97;1.25;;;6.80;99.90;;;;;;5060219;28;20049;-85
2023/10/20 12:44:17;;;;;;;3.90;2.60;;;8.50;99.90;;;;;;5034573;28;20128;-86
2023/10/20 12:46:44;;;;;;;4.78;2.95;;;6.40;99.90;;;;;;5030774;28;20048;-84
2023/10/20 12:49:09;;;;;;;4.85;2.70;;;6.30;99.90;;;;;;5040905;28;20127;-86
2023/10/20 12:51:37;;;;;;;2.55;1.45;;;8.80;99.90;;;;;;5049314;28;20174;-86
2023/10/20 12:54:04;;;;;;;7.30;3.67;;;6.40;99.90;;;;;;5043169;28;20083;-83
2023/10/20 12:56:30;;;;;;;3.35;1.50;;;6.40;99.90;;;;;;5046587;28;20084;-83
2023/10/20 12:59:05;;;;;;;4.14;2.88;;;6.90;99.90;;;;;;5027882;28;10000727;-82
2023/10/20 13:01:31;;;;;;;1.17;1.08;;;8.40;99.90;;;;;;5052295;28;20341;-84
2023/10/20 13:03:56;;;;;;;1.92;1.45;;;7.80;99.90;;;;;;5052664;28;20110;-82
2023/10/20 13:06:22;;;;;;;1.38;1.10;;;6.30;99.90;;;;;;5038110;28;20457;-82
2023/10/20 13:08:48;;;;;;;0.70;0.70;;;6.60;99.90;;;;;;5038444;28;20112;-82
2023/10/20 13:11:13;;;;;;;1.40;1.30;;;8.10;99.90;;;;;;5038347;28;20044;-84
2023/10/20 13:13:40;;;;;;;1.40;1.23;;;6.30;99.90;;;;;;5035813;28;20041;-83
2023/10/20 13:16:08;;;;;;;1.90;1.80;;;6.30;99.90;;;;;;5033931;28;21031;-81
2023/10/20 13:18:34;;;;;;;0.68;0.68;;;6.40;99.90;;;;;;5039008;28;20037;-80
2023/10/20 13:21:05;;;;;;;0.35;0.20;;;7.60;99.90;;;;;;5035892;28;20151;-81
2023/10/20 13:23:31;;;;;;;2.33;2.13;;;6.30;99.90;;;;;;5051316;28;20049;-83
2023/10/20 13:26:04;;;;;;;1.20;1.10;;;6.30;99.90;;;;;;5050852;28;20455;-82
2023/10/20 13:28:31;;;;;;;0.32;0.30;;;6.40;99.90;;;;;;5059072;28;20041;-83
2023/10/20 13:31:03;;;;;;;1.73;1.40;;;6.30;99.90;;;;;;5041883;28;20040;-82
2023/10/20 13:33:33;;;;;;;8.15;4.75;;;6.30;99.90;;;;;;5055279;28;20079;-81
2023/10/20 13:36:10;;;;;;;10.00;6.88;;;6.30;99.90;;;;;;5046898;28;20042;-82